createdAt,value
2022-09-28T00:00:35.103Z,9.98
2022-09-28T00:01:35.132Z,9.98
2022-09-28T00:02:38.161Z,9.95
2022-09-28T00:03:35.085Z,9.94
2022-09-28T00:04:35.056Z,9.92
2022-09-28T00:05:35.132Z,9.95
2022-09-28T00:06:35.025Z,9.95
2022-09-28T00:07:35.023Z,9.98
2022-09-28T00:08:35.053Z,9.98
2022-09-28T00:09:34.993Z,9.98
2022-09-28T00:10:35.094Z,9.99
2022-09-28T00:11:34.976Z,10.07
2022-09-28T00:12:34.969Z,10.09
2022-09-28T00:13:34.957Z,10.10
2022-09-28T00:14:34.947Z,10.15
2022-09-28T00:15:34.966Z,10.25
2022-09-28T00:16:35.001Z,10.30
2022-09-28T00:17:37.903Z,10.31
2022-09-28T00:18:34.923Z,10.31
2022-09-28T00:19:34.929Z,10.30
2022-09-28T00:20:34.886Z,10.35
2022-09-28T00:21:34.878Z,10.35
2022-09-28T00:22:34.861Z,10.37
2022-09-28T00:23:34.855Z,10.40
2022-09-28T00:24:34.870Z,10.41
2022-09-28T00:25:34.834Z,10.37
2022-09-28T00:26:34.818Z,10.33
2022-09-28T00:27:34.810Z,10.33
2022-09-28T00:28:34.809Z,10.37
2022-09-28T00:29:34.895Z,10.37
2022-09-28T00:30:34.779Z,10.37
2022-09-28T00:31:34.827Z,10.35
2022-09-28T00:32:37.766Z,10.35
2022-09-28T00:33:34.764Z,10.34
2022-09-28T00:34:34.739Z,10.33
2022-09-28T00:35:34.753Z,10.33
2022-09-28T00:36:34.710Z,10.33
2022-09-28T00:37:34.712Z,10.33
2022-09-28T00:38:34.702Z,10.35
2022-09-28T00:39:34.690Z,10.41
2022-09-28T00:40:34.751Z,10.41
2022-09-28T00:41:34.663Z,10.42
2022-09-28T00:42:34.652Z,10.42
2022-09-28T00:43:34.644Z,10.41
2022-09-28T00:44:34.642Z,10.48
2022-09-28T00:45:34.675Z,10.54
2022-09-28T00:46:34.614Z,10.53
2022-09-28T00:47:37.602Z,10.56
2022-09-28T00:48:34.596Z,10.60
2022-09-28T00:49:34.638Z,10.61
2022-09-28T00:50:34.567Z,10.63
2022-09-28T00:51:34.565Z,10.61
2022-09-28T00:52:34.555Z,10.61
2022-09-28T00:53:34.533Z,10.61
2022-09-28T00:54:34.524Z,10.63
2022-09-28T00:55:34.520Z,10.64
2022-09-28T00:56:34.509Z,10.67
2022-09-28T00:57:34.498Z,10.68
2022-09-28T00:58:34.496Z,10.72
2022-09-28T00:59:34.474Z,10.72
2022-09-28T01:00:34.501Z,10.72
2022-09-28T01:01:34.468Z,10.74
2022-09-28T01:02:37.478Z,10.71
2022-09-28T01:03:34.461Z,10.67
2022-09-28T01:04:34.429Z,10.60
2022-09-28T01:05:34.433Z,10.60
2022-09-28T01:06:34.417Z,10.56
2022-09-28T01:07:34.406Z,10.54
2022-09-28T01:08:34.394Z,10.53
2022-09-28T01:09:34.392Z,10.51
2022-09-28T01:10:34.367Z,10.49
2022-09-28T01:11:34.359Z,10.48
2022-09-28T01:12:34.390Z,10.46
2022-09-28T01:13:34.340Z,10.42
2022-09-28T01:14:34.350Z,10.40
2022-09-28T01:15:34.319Z,10.38
2022-09-28T01:16:34.356Z,10.37
2022-09-28T01:17:37.451Z,10.34
2022-09-28T01:18:34.296Z,10.33
2022-09-28T01:19:34.280Z,10.28
2022-09-28T01:20:34.258Z,10.22
2022-09-28T01:21:34.252Z,10.22
2022-09-28T01:22:34.246Z,10.19
2022-09-28T01:23:34.223Z,10.20
2022-09-28T01:24:34.227Z,10.20
2022-09-28T01:25:34.266Z,10.20
2022-09-28T01:26:34.204Z,10.20
2022-09-28T01:27:34.225Z,10.20
2022-09-28T01:28:34.180Z,10.19
2022-09-28T01:29:34.171Z,10.25
2022-09-28T01:30:34.164Z,10.26
2022-09-28T01:31:34.231Z,10.28
2022-09-28T01:32:37.168Z,10.30
2022-09-28T01:33:34.142Z,10.30
2022-09-28T01:34:34.114Z,10.26
2022-09-28T01:35:34.105Z,10.26
2022-09-28T01:36:34.098Z,10.25
2022-09-28T01:37:34.087Z,10.25
2022-09-28T01:38:34.078Z,10.25
2022-09-28T01:39:34.102Z,10.23
2022-09-28T01:40:34.068Z,10.20
2022-09-28T01:41:34.046Z,10.17
2022-09-28T01:42:34.049Z,10.15
2022-09-28T01:43:34.029Z,10.12
2022-09-28T01:44:34.016Z,10.10
2022-09-28T01:45:34.090Z,10.09
2022-09-28T01:46:33.989Z,10.04
2022-09-28T01:47:36.979Z,10.01
2022-09-28T01:48:33.990Z,9.98
2022-09-28T01:49:33.966Z,9.95
2022-09-28T01:50:34.061Z,9.94
2022-09-28T01:51:33.945Z,9.97
2022-09-28T01:52:33.920Z,9.97
2022-09-28T01:53:33.920Z,9.97
2022-09-28T01:54:33.908Z,9.97
2022-09-28T01:55:33.901Z,9.99
2022-09-28T01:56:33.896Z,9.98
2022-09-28T01:57:33.882Z,9.99
2022-09-28T01:58:33.879Z,9.98
2022-09-28T01:59:33.850Z,9.95
2022-09-28T02:00:33.888Z,9.97
2022-09-28T02:01:33.882Z,9.95
2022-09-28T02:02:36.821Z,9.95
2022-09-28T02:03:33.835Z,9.95
2022-09-28T02:04:33.804Z,9.95
2022-09-28T02:05:33.799Z,9.94
2022-09-28T02:06:33.781Z,9.91
2022-09-28T02:07:33.777Z,9.91
2022-09-28T02:08:33.763Z,9.91
2022-09-28T02:09:33.986Z,9.89
2022-09-28T02:10:33.741Z,9.89
2022-09-28T02:11:33.754Z,9.87
2022-09-28T02:12:33.725Z,9.82
2022-09-28T02:13:33.717Z,9.77
2022-09-28T02:14:33.694Z,9.76
2022-09-28T02:15:33.685Z,9.74
2022-09-28T02:16:33.735Z,9.73
2022-09-28T02:17:36.665Z,9.72
2022-09-28T02:18:33.679Z,9.69
2022-09-28T02:19:33.646Z,9.68
2022-09-28T02:20:33.668Z,9.66
2022-09-28T02:21:33.640Z,9.65
2022-09-28T02:22:33.606Z,9.62
2022-09-28T02:23:33.608Z,9.61
2022-09-28T02:24:33.627Z,9.58
2022-09-28T02:25:33.593Z,9.58
2022-09-28T02:26:33.580Z,9.58
2022-09-28T02:27:33.574Z,9.58
2022-09-28T02:28:33.549Z,9.56
2022-09-28T02:29:33.540Z,9.59
2022-09-28T02:30:33.538Z,9.55
2022-09-28T02:31:33.554Z,9.54
2022-09-28T02:32:36.518Z,9.48
2022-09-28T02:33:33.519Z,9.48
2022-09-28T02:34:33.501Z,9.47
2022-09-28T02:35:33.511Z,9.47
2022-09-28T02:36:33.469Z,9.47
2022-09-28T02:37:33.458Z,9.47
2022-09-28T02:38:33.440Z,9.46
2022-09-28T02:39:33.439Z,9.43
2022-09-28T02:40:33.515Z,9.41
2022-09-28T02:41:33.421Z,9.40
2022-09-28T02:42:33.433Z,9.39
2022-09-28T02:43:33.394Z,9.39
2022-09-28T02:44:33.390Z,9.37
2022-09-28T02:45:33.435Z,9.39
2022-09-28T02:46:33.385Z,9.36
2022-09-28T02:47:36.363Z,9.31
2022-09-28T02:48:43.634Z,9.28
2022-09-28T02:49:33.538Z,9.29
2022-09-28T02:50:33.362Z,9.28
2022-09-28T02:51:33.314Z,9.29
2022-09-28T02:52:33.313Z,9.28
2022-09-28T02:53:33.294Z,9.25
2022-09-28T02:54:33.290Z,9.23
2022-09-28T02:55:33.406Z,9.22
2022-09-28T02:56:33.264Z,9.21
2022-09-28T02:57:33.254Z,9.22
2022-09-28T02:58:33.244Z,9.22
2022-09-28T02:59:33.268Z,9.21
2022-09-28T03:00:33.254Z,9.21
2022-09-28T03:01:33.216Z,9.19
2022-09-28T03:02:36.197Z,9.16
2022-09-28T03:03:33.207Z,9.16
2022-09-28T03:04:33.178Z,9.14
2022-09-28T03:05:33.179Z,9.13
2022-09-28T03:06:33.160Z,9.13
2022-09-28T03:07:33.159Z,9.10
2022-09-28T03:08:33.138Z,9.13
2022-09-28T03:09:33.126Z,9.11
2022-09-28T03:10:33.154Z,9.13
2022-09-28T03:11:33.096Z,9.14
2022-09-28T03:12:33.107Z,9.16
2022-09-28T03:13:33.127Z,9.19
2022-09-28T03:14:33.077Z,9.19
2022-09-28T03:15:33.070Z,9.18
2022-09-28T03:16:33.097Z,9.18
2022-09-28T03:17:36.049Z,9.18
2022-09-28T03:18:33.047Z,9.18
2022-09-28T03:19:33.020Z,9.14
2022-09-28T03:20:33.054Z,9.14
2022-09-28T03:21:33.006Z,9.14
2022-09-28T03:22:32.988Z,9.14
2022-09-28T03:23:32.978Z,9.16
2022-09-28T03:24:32.972Z,9.16
2022-09-28T03:25:33.002Z,9.18
2022-09-28T03:26:32.952Z,9.21
2022-09-28T03:27:32.940Z,9.22
2022-09-28T03:28:32.926Z,9.19
2022-09-28T03:29:32.922Z,9.18
2022-09-28T03:30:32.910Z,9.14
2022-09-28T03:31:32.974Z,9.13
2022-09-28T03:32:35.895Z,9.10
2022-09-28T03:33:32.910Z,9.08
2022-09-28T03:34:32.895Z,9.08
2022-09-28T03:35:32.855Z,9.06
2022-09-28T03:36:32.861Z,9.06
2022-09-28T03:37:32.853Z,9.06
2022-09-28T03:38:32.825Z,9.06
2022-09-28T03:39:32.823Z,9.08
2022-09-28T03:40:32.848Z,9.06
2022-09-28T03:41:32.795Z,9.03
2022-09-28T03:42:32.784Z,9.03
2022-09-28T03:43:32.766Z,9.03
2022-09-28T03:44:32.756Z,9.03
2022-09-28T03:45:32.833Z,9.04
2022-09-28T03:46:32.746Z,9.06
2022-09-28T03:47:35.757Z,9.08
2022-09-28T03:48:33.180Z,9.04
2022-09-28T03:49:32.716Z,9.06
2022-09-28T03:50:32.731Z,9.04
2022-09-28T03:51:32.697Z,9.04
2022-09-28T03:52:32.689Z,9.02
2022-09-28T03:53:32.682Z,9.03
2022-09-28T03:54:32.658Z,9.02
2022-09-28T03:55:32.646Z,9.02
2022-09-28T03:56:32.634Z,9.00
2022-09-28T03:57:32.634Z,9.00
2022-09-28T03:58:32.631Z,9.00
2022-09-28T03:59:32.698Z,9.02
2022-09-28T04:00:32.722Z,9.02
2022-09-28T04:01:32.667Z,9.00
2022-09-28T04:02:35.635Z,9.00
2022-09-28T04:03:32.602Z,9.00
2022-09-28T04:04:32.611Z,8.99
2022-09-28T04:05:32.542Z,9.02
2022-09-28T04:06:32.591Z,9.02
2022-09-28T04:07:32.583Z,9.02
2022-09-28T04:08:32.740Z,9.03
2022-09-28T04:09:32.554Z,9.06
2022-09-28T04:10:32.534Z,9.06
2022-09-28T04:11:42.993Z,9.10
2022-09-28T04:12:33.472Z,9.10
2022-09-28T04:13:32.501Z,9.08
2022-09-28T04:14:32.455Z,9.08
2022-09-28T04:15:32.445Z,9.04
2022-09-28T04:16:32.472Z,9.04
2022-09-28T04:17:39.789Z,9.04
2022-09-28T04:18:32.422Z,9.02
2022-09-28T04:19:32.392Z,9.00
2022-09-28T04:20:32.390Z,8.99
2022-09-28T04:21:32.374Z,9.00
2022-09-28T04:22:32.362Z,9.00
2022-09-28T04:23:32.381Z,9.00
2022-09-28T04:24:32.344Z,8.99
2022-09-28T04:25:32.335Z,8.94
2022-09-28T04:26:32.324Z,8.95
2022-09-28T04:27:32.320Z,8.94
2022-09-28T04:28:32.413Z,8.92
2022-09-28T04:29:32.340Z,8.94
2022-09-28T04:30:32.288Z,8.94
2022-09-28T04:31:32.388Z,8.92
2022-09-28T04:32:35.252Z,8.95
2022-09-28T04:33:32.274Z,8.95
2022-09-28T04:34:35.894Z,8.99
2022-09-28T04:35:32.238Z,9.02
2022-09-28T04:36:32.218Z,9.02
2022-09-28T04:37:32.206Z,8.99
2022-09-28T04:38:51.961Z,8.97
2022-09-28T04:39:33.217Z,8.95
2022-09-28T04:40:32.227Z,8.99
2022-09-28T04:41:32.172Z,8.97
2022-09-28T04:42:32.180Z,8.97
2022-09-28T04:43:32.138Z,8.97
2022-09-28T04:44:32.139Z,8.95
2022-09-28T04:45:32.192Z,8.95
2022-09-28T04:46:32.145Z,8.95
2022-09-28T04:47:35.101Z,8.94
2022-09-28T04:48:32.117Z,8.94
2022-09-28T04:49:32.092Z,8.95
2022-09-28T04:50:32.081Z,8.92
2022-09-28T04:51:32.069Z,8.91
2022-09-28T04:52:32.099Z,8.91
2022-09-28T04:53:32.046Z,8.91
2022-09-28T04:54:32.031Z,8.89
2022-09-28T04:55:31.980Z,8.91
2022-09-28T04:56:31.951Z,8.91
2022-09-28T04:57:32.045Z,8.91
2022-09-28T04:58:31.989Z,8.91
2022-09-28T04:59:31.981Z,8.89
2022-09-28T05:00:31.977Z,8.87
2022-09-28T05:01:31.938Z,8.88
2022-09-28T05:02:35.035Z,8.87
2022-09-28T05:03:31.953Z,8.87
2022-09-28T05:04:31.888Z,8.87
2022-09-28T05:05:31.863Z,8.89
2022-09-28T05:06:31.880Z,8.88
2022-09-28T05:07:31.845Z,8.88
2022-09-28T05:08:31.834Z,8.88
2022-09-28T05:09:35.012Z,8.87
2022-09-28T05:10:31.815Z,8.87
2022-09-28T05:11:31.837Z,8.87
2022-09-28T05:12:31.793Z,8.88
2022-09-28T05:13:31.793Z,8.88
2022-09-28T05:14:31.774Z,8.88
2022-09-28T05:15:31.790Z,8.89
2022-09-28T05:16:31.791Z,8.87
2022-09-28T05:17:34.766Z,8.87
2022-09-28T05:18:31.746Z,8.87
2022-09-28T05:19:31.732Z,8.85
2022-09-28T05:20:31.708Z,8.85
2022-09-28T05:21:31.703Z,8.87
2022-09-28T05:22:31.735Z,8.85
2022-09-28T05:23:33.478Z,8.85
2022-09-28T05:24:31.690Z,8.87
2022-09-28T05:25:31.657Z,8.85
2022-09-28T05:26:31.677Z,8.87
2022-09-28T05:27:31.631Z,8.88
2022-09-28T05:28:31.629Z,8.87
2022-09-28T05:29:32.621Z,8.87
2022-09-28T05:30:31.618Z,8.89
2022-09-28T05:31:31.611Z,8.89
2022-09-28T05:32:34.580Z,8.91
2022-09-28T05:33:31.591Z,8.91
2022-09-28T05:34:31.563Z,8.89
2022-09-28T05:35:31.553Z,8.88
2022-09-28T05:36:31.541Z,8.91
2022-09-28T05:37:31.533Z,8.92
2022-09-28T05:38:31.512Z,8.92
2022-09-28T05:39:31.500Z,8.94
2022-09-28T05:40:31.578Z,8.94
2022-09-28T05:41:31.519Z,8.94
2022-09-28T05:42:31.478Z,8.91
2022-09-28T05:43:31.470Z,8.91
2022-09-28T05:44:31.452Z,8.92
2022-09-28T05:45:31.487Z,8.92
2022-09-28T05:46:31.471Z,8.95
2022-09-28T05:47:34.423Z,8.94
2022-09-28T05:48:31.423Z,9.00
2022-09-28T05:49:31.411Z,8.97
2022-09-28T05:50:31.414Z,8.95
2022-09-28T05:51:31.405Z,8.97
2022-09-28T05:52:31.365Z,8.94
2022-09-28T05:53:31.362Z,8.97
2022-09-28T05:54:31.351Z,9.00
2022-09-28T05:55:31.383Z,9.03
2022-09-28T05:56:31.364Z,9.04
2022-09-28T05:57:31.323Z,9.10
2022-09-28T05:58:31.314Z,9.08
2022-09-28T05:59:31.292Z,9.11
2022-09-28T06:00:31.293Z,9.14
2022-09-28T06:01:31.370Z,9.14
2022-09-28T06:02:34.292Z,9.14
2022-09-28T06:03:31.268Z,9.14
2022-09-28T06:04:31.246Z,9.14
2022-09-28T06:05:31.237Z,9.16
2022-09-28T06:06:31.258Z,9.13
2022-09-28T06:07:31.217Z,9.18
2022-09-28T06:08:31.199Z,9.18
2022-09-28T06:09:31.199Z,9.18
2022-09-28T06:10:31.190Z,9.19
2022-09-28T06:11:31.278Z,9.21
2022-09-28T06:12:31.207Z,9.23
2022-09-28T06:13:31.148Z,9.19
2022-09-28T06:14:31.164Z,9.22
2022-09-28T06:15:31.128Z,9.22
2022-09-28T06:16:31.248Z,9.23
2022-09-28T06:17:34.101Z,9.25
2022-09-28T06:18:31.110Z,9.26
2022-09-28T06:19:31.088Z,9.26
2022-09-28T06:20:31.092Z,9.31
2022-09-28T06:21:31.059Z,9.32
2022-09-28T06:22:31.134Z,9.32
2022-09-28T06:23:31.041Z,9.32
2022-09-28T06:24:31.038Z,9.34
2022-09-28T06:25:31.031Z,9.36
2022-09-28T06:26:31.012Z,9.39
2022-09-28T06:27:31.002Z,9.37
2022-09-28T06:28:30.992Z,9.40
2022-09-28T06:29:30.982Z,9.41
2022-09-28T06:30:31.022Z,9.41
2022-09-28T06:31:30.969Z,9.44
2022-09-28T06:32:33.943Z,9.44
2022-09-28T06:33:30.951Z,9.47
2022-09-28T06:34:30.983Z,9.44
2022-09-28T06:35:30.957Z,9.44
2022-09-28T06:36:30.906Z,9.46
2022-09-28T06:37:30.911Z,9.46
2022-09-28T06:38:30.888Z,9.46
2022-09-28T06:39:30.873Z,9.46
2022-09-28T06:40:30.897Z,9.46
2022-09-28T06:41:30.865Z,9.48
2022-09-28T06:42:30.848Z,9.48
2022-09-28T06:43:34.269Z,9.50
2022-09-28T06:44:30.827Z,9.48
2022-09-28T06:45:30.917Z,9.50
2022-09-28T06:46:30.875Z,9.51
2022-09-28T06:47:33.789Z,9.48
2022-09-28T06:48:30.807Z,9.48
2022-09-28T06:49:30.778Z,9.51
2022-09-28T06:50:30.764Z,9.50
2022-09-28T06:51:30.755Z,9.51
2022-09-28T06:52:30.745Z,9.54
2022-09-28T06:53:30.728Z,9.55
2022-09-28T06:54:30.728Z,9.56
2022-09-28T06:55:30.725Z,9.58
2022-09-28T06:56:33.057Z,9.58
2022-09-28T06:57:30.705Z,9.59
2022-09-28T06:58:30.694Z,9.59
2022-09-28T06:59:30.678Z,9.64
2022-09-28T07:00:30.670Z,9.64
2022-09-28T07:01:30.734Z,9.68
2022-09-28T07:02:33.665Z,9.69
2022-09-28T07:03:30.652Z,9.73
2022-09-28T07:04:30.618Z,9.73
2022-09-28T07:05:30.610Z,9.73
2022-09-28T07:06:30.599Z,9.73
2022-09-28T07:07:30.585Z,9.74
2022-09-28T07:08:30.571Z,9.76
2022-09-28T07:09:33.496Z,9.76
2022-09-28T07:10:31.563Z,9.76
2022-09-28T07:11:30.547Z,9.74
2022-09-28T07:12:30.572Z,9.76
2022-09-28T07:13:48.647Z,9.74
2022-09-28T07:14:46.860Z,9.76
2022-09-28T07:15:31.503Z,9.77
2022-09-28T07:16:54.642Z,9.79
2022-09-28T07:17:42.929Z,9.77
2022-09-28T07:18:31.483Z,9.77
2022-09-28T07:19:30.462Z,9.79
2022-09-28T07:20:30.516Z,9.77
2022-09-28T07:21:31.457Z,9.82
2022-09-28T07:22:41.526Z,9.82
2022-09-28T07:23:30.428Z,9.82
2022-09-28T07:24:31.415Z,9.82
2022-09-28T07:25:30.396Z,9.83
2022-09-28T07:26:30.389Z,9.83
2022-09-28T07:27:30.383Z,9.83
2022-09-28T07:28:30.397Z,9.86
2022-09-28T07:29:30.346Z,9.89
2022-09-28T07:30:30.391Z,9.89
2022-09-28T07:31:30.326Z,9.87
2022-09-28T07:32:33.317Z,9.91
2022-09-28T07:33:30.329Z,9.89
2022-09-28T07:34:30.308Z,9.92
2022-09-28T07:35:30.289Z,9.92
2022-09-28T07:36:30.290Z,9.92
2022-09-28T07:37:30.275Z,9.94
2022-09-28T07:38:30.268Z,9.97
2022-09-28T07:39:30.367Z,9.98
2022-09-28T07:40:30.297Z,9.98
2022-09-28T07:41:30.237Z,9.99
2022-09-28T07:42:30.228Z,9.98
2022-09-28T07:43:30.240Z,9.99
2022-09-28T07:44:30.201Z,10.02
2022-09-28T07:45:30.272Z,10.02
2022-09-28T07:46:30.226Z,10.04
2022-09-28T07:47:35.260Z,10.04
2022-09-28T07:48:30.227Z,10.05
2022-09-28T07:49:30.161Z,10.07
2022-09-28T07:50:30.139Z,10.07
2022-09-28T07:51:30.125Z,10.09
2022-09-28T07:52:30.113Z,10.10
2022-09-28T07:53:30.113Z,10.15
2022-09-28T07:54:30.097Z,10.12
2022-09-28T07:55:30.092Z,10.15
2022-09-28T07:56:30.123Z,10.16
2022-09-28T07:57:30.062Z,10.16
2022-09-28T07:58:30.054Z,10.16
2022-09-28T07:59:30.049Z,10.17
2022-09-28T08:00:33.902Z,10.19
2022-09-28T08:01:30.068Z,10.22
2022-09-28T08:02:33.063Z,10.20
2022-09-28T08:03:30.021Z,10.25
2022-09-28T08:04:29.986Z,10.25
2022-09-28T08:05:29.976Z,10.25
2022-09-28T08:06:29.965Z,10.25
2022-09-28T08:07:30.030Z,10.28
2022-09-28T08:08:30.041Z,10.28
2022-09-28T08:09:29.948Z,10.28
2022-09-28T08:10:29.933Z,10.26
2022-09-28T08:11:29.914Z,10.28
2022-09-28T08:12:29.908Z,10.30
2022-09-28T08:13:29.905Z,10.30
2022-09-28T08:14:29.887Z,10.30
2022-09-28T08:15:29.876Z,10.33
2022-09-28T08:16:29.976Z,10.30
2022-09-28T08:17:32.849Z,10.30
2022-09-28T08:18:29.862Z,10.31
2022-09-28T08:19:29.826Z,10.30
2022-09-28T08:20:29.815Z,10.26
2022-09-28T08:21:29.810Z,10.26
2022-09-28T08:22:29.797Z,10.26
2022-09-28T08:23:29.819Z,10.25
2022-09-28T08:24:29.778Z,10.22
2022-09-28T08:25:29.777Z,10.20
2022-09-28T08:26:29.777Z,10.17
2022-09-28T08:27:29.748Z,10.20
2022-09-28T08:28:29.769Z,10.19
2022-09-28T08:29:29.730Z,10.19
2022-09-28T08:30:29.799Z,10.17
2022-09-28T08:31:29.707Z,10.17
2022-09-28T08:32:32.699Z,10.15
2022-09-28T08:33:29.732Z,10.15
2022-09-28T08:34:29.672Z,10.12
2022-09-28T08:35:29.662Z,10.13
2022-09-28T08:36:29.650Z,10.12
2022-09-28T08:37:29.640Z,10.13
2022-09-28T08:38:29.662Z,10.16
2022-09-28T08:39:29.622Z,10.13
2022-09-28T08:40:29.692Z,10.16
2022-09-28T08:41:29.606Z,10.16
2022-09-28T08:42:29.594Z,10.17
2022-09-28T08:43:29.714Z,10.15
2022-09-28T08:44:29.583Z,10.15
2022-09-28T08:45:29.562Z,10.15
2022-09-28T08:46:29.610Z,10.15
2022-09-28T08:47:32.587Z,10.15
2022-09-28T08:48:29.548Z,10.13
2022-09-28T08:49:29.526Z,10.15
2022-09-28T08:50:29.553Z,10.16
2022-09-28T08:51:29.496Z,10.17
2022-09-28T08:52:29.485Z,10.19
2022-09-28T08:53:29.486Z,10.20
2022-09-28T08:54:29.465Z,10.23
2022-09-28T08:55:29.534Z,10.26
2022-09-28T08:56:29.448Z,10.30
2022-09-28T08:57:29.445Z,10.31
2022-09-28T08:58:29.426Z,10.35
2022-09-28T08:59:29.419Z,10.35
2022-09-28T09:00:29.408Z,10.37
2022-09-28T09:01:29.465Z,10.40
2022-09-28T09:02:32.428Z,10.40
2022-09-28T09:03:29.389Z,10.40
2022-09-28T09:04:29.369Z,10.41
2022-09-28T09:05:29.388Z,10.42
2022-09-28T09:06:29.368Z,10.44
2022-09-28T09:07:29.338Z,10.48
2022-09-28T09:08:29.321Z,10.49
2022-09-28T09:09:29.320Z,10.53
2022-09-28T09:10:29.300Z,10.54
2022-09-28T09:11:29.391Z,10.57
2022-09-28T09:12:29.282Z,10.59
2022-09-28T09:13:29.281Z,10.61
2022-09-28T09:14:29.264Z,10.64
2022-09-28T09:15:29.242Z,10.67
2022-09-28T09:16:29.309Z,10.69
2022-09-28T09:17:32.221Z,10.71
2022-09-28T09:18:29.233Z,10.75
2022-09-28T09:19:29.213Z,10.74
2022-09-28T09:20:29.203Z,10.76
2022-09-28T09:21:29.268Z,10.76
2022-09-28T09:22:29.183Z,10.78
2022-09-28T09:23:29.164Z,10.79
2022-09-28T09:24:29.207Z,10.75
2022-09-28T09:25:29.143Z,10.76
2022-09-28T09:26:29.133Z,10.78
2022-09-28T09:27:29.125Z,10.79
2022-09-28T09:28:29.105Z,10.81
2022-09-28T09:29:29.115Z,10.82
2022-09-28T09:30:31.605Z,10.84
2022-09-28T09:31:29.096Z,10.89
2022-09-28T09:32:32.076Z,10.89
2022-09-28T09:33:29.076Z,10.90
2022-09-28T09:34:29.065Z,10.90
2022-09-28T09:35:31.300Z,10.92
2022-09-28T09:36:29.027Z,10.93
2022-09-28T09:37:29.027Z,10.94
2022-09-28T09:38:29.015Z,10.96
2022-09-28T09:39:29.004Z,10.96
2022-09-28T09:40:29.097Z,10.99
2022-09-28T09:41:28.977Z,11.02
2022-09-28T09:42:28.971Z,11.07
2022-09-28T09:43:31.545Z,11.10
2022-09-28T09:44:29.254Z,11.11
2022-09-28T09:45:28.948Z,11.17
2022-09-28T09:46:28.929Z,11.15
2022-09-28T09:47:31.919Z,11.15
2022-09-28T09:48:28.918Z,11.12
2022-09-28T09:49:28.898Z,11.12
2022-09-28T09:50:28.883Z,11.14
2022-09-28T09:51:28.878Z,11.18
2022-09-28T09:52:28.915Z,11.19
2022-09-28T09:53:28.865Z,11.23
2022-09-28T09:54:28.840Z,11.26
2022-09-28T09:55:29.830Z,11.27
2022-09-28T09:56:28.813Z,11.29
2022-09-28T09:57:28.801Z,11.35
2022-09-28T09:58:28.801Z,11.36
2022-09-28T09:59:28.794Z,11.41
2022-09-28T10:00:28.781Z,11.41
2022-09-28T10:01:28.818Z,11.41
2022-09-28T10:02:31.835Z,11.43
2022-09-28T10:03:28.795Z,11.44
2022-09-28T10:04:28.744Z,11.47
2022-09-28T10:05:28.733Z,11.48
2022-09-28T10:06:28.822Z,11.51
2022-09-28T10:07:28.725Z,11.52
2022-09-28T10:08:28.715Z,11.51
2022-09-28T10:09:28.687Z,11.48
2022-09-28T10:10:28.685Z,11.51
2022-09-28T10:11:28.671Z,11.54
2022-09-28T10:12:28.666Z,11.52
2022-09-28T10:13:28.644Z,11.54
2022-09-28T10:14:28.643Z,11.52
2022-09-28T10:15:28.624Z,11.51
2022-09-28T10:16:28.801Z,11.52
2022-09-28T10:17:31.599Z,11.51
2022-09-28T10:18:28.639Z,11.54
2022-09-28T10:19:28.587Z,11.54
2022-09-28T10:20:28.620Z,11.55
2022-09-28T10:21:28.598Z,11.57
2022-09-28T10:22:28.610Z,11.60
2022-09-28T10:23:28.545Z,11.59
2022-09-28T10:24:28.671Z,11.62
2022-09-28T10:25:28.526Z,11.62
2022-09-28T10:26:28.591Z,11.65
2022-09-28T10:27:28.762Z,11.65
2022-09-28T10:28:28.528Z,11.63
2022-09-28T10:29:28.696Z,11.63
2022-09-28T10:30:28.518Z,11.65
2022-09-28T10:31:28.463Z,11.66
2022-09-28T10:32:31.568Z,11.68
2022-09-28T10:33:28.460Z,11.70
2022-09-28T10:34:28.558Z,11.69
2022-09-28T10:35:28.424Z,11.68
2022-09-28T10:36:28.413Z,11.68
2022-09-28T10:37:28.390Z,11.68
2022-09-28T10:38:28.384Z,11.69
2022-09-28T10:39:28.388Z,11.72
2022-09-28T10:40:28.443Z,11.68
2022-09-28T10:41:28.360Z,11.63
2022-09-28T10:42:28.352Z,11.60
2022-09-28T10:43:28.456Z,11.59
2022-09-28T10:44:28.424Z,11.55
2022-09-28T10:45:28.311Z,11.52
2022-09-28T10:46:28.325Z,11.51
2022-09-28T10:47:31.300Z,11.52
2022-09-28T10:48:28.304Z,11.52
2022-09-28T10:49:28.279Z,11.51
2022-09-28T10:50:28.270Z,11.51
2022-09-28T10:51:28.244Z,11.48
2022-09-28T10:52:28.244Z,11.48
2022-09-28T10:53:28.231Z,11.47
2022-09-28T10:54:28.365Z,11.48
2022-09-28T10:55:28.216Z,11.52
2022-09-28T10:56:28.209Z,11.54
2022-09-28T10:57:28.196Z,11.57
2022-09-28T10:58:28.190Z,11.62
2022-09-28T10:59:28.297Z,11.66
2022-09-28T11:00:28.164Z,11.70
2022-09-28T11:01:28.202Z,11.73
2022-09-28T11:02:35.476Z,11.75
2022-09-28T11:03:28.149Z,11.78
2022-09-28T11:04:28.172Z,11.73
2022-09-28T11:05:28.114Z,11.73
2022-09-28T11:06:28.106Z,11.77
2022-09-28T11:07:28.099Z,11.72
2022-09-28T11:08:28.123Z,11.70
2022-09-28T11:09:30.647Z,11.69
2022-09-28T11:10:28.053Z,11.70
2022-09-28T11:11:28.039Z,11.70
2022-09-28T11:12:28.039Z,11.73
2022-09-28T11:13:28.031Z,11.75
2022-09-28T11:14:28.067Z,11.77
2022-09-28T11:15:27.999Z,11.80
2022-09-28T11:16:28.025Z,11.81
2022-09-28T11:17:30.983Z,11.81
2022-09-28T11:18:28.025Z,11.81
2022-09-28T11:19:28.020Z,11.81
2022-09-28T11:20:28.706Z,11.81
2022-09-28T11:21:28.019Z,11.73
2022-09-28T11:22:27.922Z,11.72
2022-09-28T11:23:27.924Z,11.72
2022-09-28T11:24:27.946Z,11.68
2022-09-28T11:25:27.909Z,11.68
2022-09-28T11:26:27.893Z,11.65
2022-09-28T11:27:27.876Z,11.66
2022-09-28T11:28:27.875Z,11.65
2022-09-28T11:29:27.875Z,11.63
2022-09-28T11:30:27.900Z,11.62
2022-09-28T11:31:27.831Z,11.60
2022-09-28T11:32:30.865Z,11.55
2022-09-28T11:33:27.825Z,11.54
2022-09-28T11:34:47.818Z,11.51
2022-09-28T11:35:28.807Z,11.50
2022-09-28T11:36:27.791Z,11.47
2022-09-28T11:37:27.772Z,11.45
2022-09-28T11:38:27.767Z,11.45
2022-09-28T11:39:27.757Z,11.44
2022-09-28T11:40:27.794Z,11.45
2022-09-28T11:41:27.735Z,11.47
2022-09-28T11:42:27.729Z,11.45
2022-09-28T11:43:27.708Z,11.48
2022-09-28T11:44:31.004Z,11.54
2022-09-28T11:45:27.687Z,11.54
2022-09-28T11:46:27.740Z,11.59
2022-09-28T11:47:30.670Z,11.63
2022-09-28T11:48:27.690Z,11.68
2022-09-28T11:49:27.649Z,11.72
2022-09-28T11:50:27.649Z,11.73
2022-09-28T11:51:27.738Z,11.75
2022-09-28T11:52:27.675Z,11.80
2022-09-28T11:53:27.606Z,11.86
2022-09-28T11:54:27.619Z,11.90
2022-09-28T11:55:27.650Z,11.95
2022-09-28T11:56:27.582Z,11.97
2022-09-28T11:57:27.575Z,11.99
2022-09-28T11:58:27.561Z,11.91
2022-09-28T11:59:27.545Z,11.88
2022-09-28T12:00:27.534Z,11.88
2022-09-28T12:01:27.512Z,11.88
2022-09-28T12:02:30.672Z,11.84
2022-09-28T12:03:27.607Z,11.87
2022-09-28T12:04:27.506Z,11.91
2022-09-28T12:05:27.484Z,11.97
2022-09-28T12:06:27.463Z,11.99
2022-09-28T12:07:27.495Z,11.95
2022-09-28T12:08:27.476Z,11.97
2022-09-28T12:09:27.444Z,12.02
2022-09-28T12:10:27.432Z,12.04
2022-09-28T12:11:27.425Z,12.03
2022-09-28T12:12:27.426Z,12.03
2022-09-28T12:13:27.826Z,12.04
2022-09-28T12:14:27.397Z,12.02
2022-09-28T12:15:27.378Z,11.97
2022-09-28T12:16:53.678Z,12.00
2022-09-28T12:17:31.445Z,12.03
2022-09-28T12:18:27.377Z,12.03
2022-09-28T12:19:27.356Z,12.00
2022-09-28T12:20:27.336Z,11.95
2022-09-28T12:21:27.336Z,11.87
2022-09-28T12:22:27.307Z,11.83
2022-09-28T12:23:27.298Z,11.75
2022-09-28T12:24:27.292Z,11.72
2022-09-28T12:25:27.282Z,11.73
2022-09-28T12:26:27.259Z,11.75
2022-09-28T12:27:27.271Z,11.77
2022-09-28T12:28:27.254Z,11.81
2022-09-28T12:29:27.360Z,11.81
2022-09-28T12:30:27.219Z,11.81
2022-09-28T12:31:27.214Z,11.83
2022-09-28T12:32:30.195Z,11.86
2022-09-28T12:33:27.204Z,11.91
2022-09-28T12:34:27.212Z,11.91
2022-09-28T12:35:27.175Z,12.00
2022-09-28T12:36:27.155Z,12.07
2022-09-28T12:37:27.149Z,12.13
2022-09-28T12:39:46.853Z,12.15
2022-09-28T12:40:28.158Z,12.17
2022-09-28T12:41:27.103Z,12.17
2022-09-28T12:42:27.094Z,12.20
2022-09-28T12:43:27.085Z,12.17
2022-09-28T12:44:27.086Z,12.17
2022-09-28T12:45:27.107Z,12.17
2022-09-28T12:46:28.103Z,12.20
2022-09-28T12:47:30.053Z,12.22
2022-09-28T12:48:27.054Z,12.22
2022-09-28T12:50:52.595Z,12.17
2022-09-28T12:51:27.005Z,12.21
2022-09-28T12:52:27.051Z,12.20
2022-09-28T12:53:26.977Z,12.15
2022-09-28T12:54:26.989Z,12.12
2022-09-28T12:55:26.968Z,12.10
2022-09-28T12:56:26.949Z,12.07
2022-09-28T12:57:26.970Z,12.06
2022-09-28T12:58:26.937Z,12.02
2022-09-28T12:59:26.928Z,11.94
2022-09-28T13:00:27.000Z,11.88
2022-09-28T13:01:26.971Z,11.86
2022-09-28T13:02:29.918Z,11.80
2022-09-28T13:03:26.904Z,11.78
2022-09-28T13:04:26.875Z,11.69
2022-09-28T13:05:26.857Z,11.69
2022-09-28T13:06:26.850Z,11.68